sensor_id;sensor_type;location;lat;lon;timestamp;P1;durP1;ratioP1;P2;durP2;ratioP2
5167;SDS011;2603;48.918;8.980;2023-08-30T00:00:11;6.87;;;2.87;;
5167;SDS011;2603;48.918;8.980;2023-08-30T00:02:41;5.33;;;2.90;;
5167;SDS011;2603;48.918;8.980;2023-08-30T00:05:07;5.23;;;2.97;;
5167;SDS011;2603;48.918;8.980;2023-08-30T00:07:35;4.10;;;3.00;;
5167;SDS011;2603;48.918;8.980;2023-08-30T00:10:01;4.23;;;2.77;;
5167;SDS011;2603;48.918;8.980;2023-08-30T00:12:28;11.70;;;3.23;;
5167;SDS011;2603;48.918;8.980;2023-08-30T00:14:55;3.93;;;3.03;;
5167;SDS011;2603;48.918;8.980;2023-08-30T00:17:22;6.07;;;2.93;;
5167;SDS011;2603;48.918;8.980;2023-08-30T00:19:49;5.13;;;3.30;;
5167;SDS011;2603;48.918;8.980;2023-08-30T00:22:18;5.17;;;3.00;;
5167;SDS011;2603;48.918;8.980;2023-08-30T00:24:44;5.13;;;3.37;;
5167;SDS011;2603;48.918;8.980;2023-08-30T00:27:11;5.97;;;3.17;;
5167;SDS011;2603;48.918;8.980;2023-08-30T00:29:38;4.00;;;2.70;;
5167;SDS011;2603;48.918;8.980;2023-08-30T00:32:05;7.53;;;3.50;;
5167;SDS011;2603;48.918;8.980;2023-08-30T00:34:33;5.33;;;2.90;;
5167;SDS011;2603;48.918;8.980;2023-08-30T00:37:01;17.23;;;3.40;;
5167;SDS011;2603;48.918;8.980;2023-08-30T00:39:27;3.80;;;2.50;;
5167;SDS011;2603;48.918;8.980;2023-08-30T00:41:54;3.43;;;2.47;;
5167;SDS011;2603;48.918;8.980;2023-08-30T00:44:22;3.80;;;3.17;;
5167;SDS011;2603;48.918;8.980;2023-08-30T00:46:48;6.50;;;3.23;;
5167;SDS011;2603;48.918;8.980;2023-08-30T00:49:15;8.97;;;3.37;;
5167;SDS011;2603;48.918;8.980;2023-08-30T00:51:41;8.43;;;3.97;;
5167;SDS011;2603;48.918;8.980;2023-08-30T00:54:09;5.80;;;3.13;;
5167;SDS011;2603;48.918;8.980;2023-08-30T00:56:36;3.83;;;3.10;;
5167;SDS011;2603;48.918;8.980;2023-08-30T00:59:03;6.00;;;3.03;;
5167;SDS011;2603;48.918;8.980;2023-08-30T01:01:30;4.57;;;2.80;;
5167;SDS011;2603;48.918;8.980;2023-08-30T01:03:59;4.47;;;3.30;;
5167;SDS011;2603;48.918;8.980;2023-08-30T01:06:25;3.43;;;2.73;;
5167;SDS011;2603;48.918;8.980;2023-08-30T01:08:52;4.73;;;3.50;;
5167;SDS011;2603;48.918;8.980;2023-08-30T01:11:21;5.33;;;3.30;;
5167;SDS011;2603;48.918;8.980;2023-08-30T01:13:53;11.37;;;3.17;;
5167;SDS011;2603;48.918;8.980;2023-08-30T01:16:22;4.30;;;3.30;;
5167;SDS011;2603;48.918;8.980;2023-08-30T01:18:52;4.57;;;3.30;;
5167;SDS011;2603;48.918;8.980;2023-08-30T01:21:23;6.70;;;3.37;;
5167;SDS011;2603;48.918;8.980;2023-08-30T01:23:58;5.90;;;3.27;;
5167;SDS011;2603;48.918;8.980;2023-08-30T01:26:30;6.30;;;3.17;;
5167;SDS011;2603;48.918;8.980;2023-08-30T01:29:04;4.33;;;3.10;;
5167;SDS011;2603;48.918;8.980;2023-08-30T01:31:31;5.97;;;3.80;;
5167;SDS011;2603;48.918;8.980;2023-08-30T01:33:59;7.50;;;3.20;;
5167;SDS011;2603;48.918;8.980;2023-08-30T01:36:29;3.30;;;2.70;;
5167;SDS011;2603;48.918;8.980;2023-08-30T01:38:56;7.57;;;3.60;;
5167;SDS011;2603;48.918;8.980;2023-08-30T01:41:23;3.77;;;3.10;;
5167;SDS011;2603;48.918;8.980;2023-08-30T01:43:51;5.17;;;3.10;;
5167;SDS011;2603;48.918;8.980;2023-08-30T01:46:19;6.57;;;2.83;;
5167;SDS011;2603;48.918;8.980;2023-08-30T01:48:46;5.33;;;2.87;;
5167;SDS011;2603;48.918;8.980;2023-08-30T01:51:13;5.20;;;3.37;;
5167;SDS011;2603;48.918;8.980;2023-08-30T01:53:40;5.40;;;3.30;;
5167;SDS011;2603;48.918;8.980;2023-08-30T01:56:08;7.50;;;3.30;;
5167;SDS011;2603;48.918;8.980;2023-08-30T01:58:34;8.07;;;3.87;;
5167;SDS011;2603;48.918;8.980;2023-08-30T02:01:01;4.43;;;3.53;;
5167;SDS011;2603;48.918;8.980;2023-08-30T02:03:29;7.30;;;3.83;;
5167;SDS011;2603;48.918;8.980;2023-08-30T02:05:57;5.40;;;4.33;;
5167;SDS011;2603;48.918;8.980;2023-08-30T02:08:29;4.73;;;4.20;;
5167;SDS011;2603;48.918;8.980;2023-08-30T02:11:01;5.33;;;4.00;;
5167;SDS011;2603;48.918;8.980;2023-08-30T02:13:32;4.60;;;3.60;;
5167;SDS011;2603;48.918;8.980;2023-08-30T02:16:00;8.43;;;4.03;;
5167;SDS011;2603;48.918;8.980;2023-08-30T02:18:27;6.80;;;4.67;;
5167;SDS011;2603;48.918;8.980;2023-08-30T02:20:57;6.60;;;5.07;;
5167;SDS011;2603;48.918;8.980;2023-08-30T02:23:24;8.00;;;5.10;;
5167;SDS011;2603;48.918;8.980;2023-08-30T02:25:51;6.97;;;5.10;;
5167;SDS011;2603;48.918;8.980;2023-08-30T02:28:19;6.47;;;4.50;;
5167;SDS011;2603;48.918;8.980;2023-08-30T02:30:46;6.30;;;4.53;;
5167;SDS011;2603;48.918;8.980;2023-08-30T02:33:12;6.77;;;4.63;;
5167;SDS011;2603;48.918;8.980;2023-08-30T02:35:39;5.53;;;3.60;;
5167;SDS011;2603;48.918;8.980;2023-08-30T02:38:07;8.20;;;4.27;;
5167;SDS011;2603;48.918;8.980;2023-08-30T02:40:33;6.00;;;4.27;;
5167;SDS011;2603;48.918;8.980;2023-08-30T02:43:00;11.43;;;4.10;;
5167;SDS011;2603;48.918;8.980;2023-08-30T02:45:26;6.60;;;4.10;;
5167;SDS011;2603;48.918;8.980;2023-08-30T02:47:54;4.13;;;3.30;;
5167;SDS011;2603;48.918;8.980;2023-08-30T02:50:21;4.20;;;3.40;;
5167;SDS011;2603;48.918;8.980;2023-08-30T02:52:48;4.67;;;3.90;;
5167;SDS011;2603;48.918;8.980;2023-08-30T02:55:16;7.30;;;4.00;;
5167;SDS011;2603;48.918;8.980;2023-08-30T02:57:42;8.03;;;3.37;;
5167;SDS011;2603;48.918;8.980;2023-08-30T03:00:09;18.43;;;4.33;;
5167;SDS011;2603;48.918;8.980;2023-08-30T03:02:36;4.53;;;3.30;;
5167;SDS011;2603;48.918;8.980;2023-08-30T03:05:03;6.33;;;3.20;;
5167;SDS011;2603;48.918;8.980;2023-08-30T03:07:30;4.03;;;3.07;;
5167;SDS011;2603;48.918;8.980;2023-08-30T03:09:57;9.93;;;4.37;;
5167;SDS011;2603;48.918;8.980;2023-08-30T03:12:25;10.90;;;3.53;;
5167;SDS011;2603;48.918;8.980;2023-08-30T03:14:52;5.80;;;3.33;;
5167;SDS011;2603;48.918;8.980;2023-08-30T03:17:18;7.67;;;3.20;;
5167;SDS011;2603;48.918;8.980;2023-08-30T03:19:45;13.13;;;5.10;;
5167;SDS011;2603;48.918;8.980;2023-08-30T03:22:12;11.30;;;4.10;;
5167;SDS011;2603;48.918;8.980;2023-08-30T03:24:39;3.87;;;3.00;;
5167;SDS011;2603;48.918;8.980;2023-08-30T03:27:05;4.30;;;3.43;;
5167;SDS011;2603;48.918;8.980;2023-08-30T03:29:34;4.20;;;3.57;;
5167;SDS011;2603;48.918;8.980;2023-08-30T03:32:00;5.50;;;3.80;;
5167;SDS011;2603;48.918;8.980;2023-08-30T03:34:27;7.20;;;4.53;;
5167;SDS011;2603;48.918;8.980;2023-08-30T03:36:54;7.80;;;3.73;;
5167;SDS011;2603;48.918;8.980;2023-08-30T03:39:20;5.77;;;3.97;;
5167;SDS011;2603;48.918;8.980;2023-08-30T03:41:47;9.43;;;3.47;;
5167;SDS011;2603;48.918;8.980;2023-08-30T03:44:14;5.97;;;3.90;;
5167;SDS011;2603;48.918;8.980;2023-08-30T03:46:42;5.10;;;3.00;;
5167;SDS011;2603;48.918;8.980;2023-08-30T03:49:08;6.33;;;3.80;;
5167;SDS011;2603;48.918;8.980;2023-08-30T03:51:35;4.20;;;3.67;;
5167;SDS011;2603;48.918;8.980;2023-08-30T03:54:01;8.53;;;3.10;;
5167;SDS011;2603;48.918;8.980;2023-08-30T03:56:29;5.60;;;3.60;;
5167;SDS011;2603;48.918;8.980;2023-08-30T03:58:56;3.97;;;2.90;;
5167;SDS011;2603;48.918;8.980;2023-08-30T04:01:22;5.63;;;3.77;;
5167;SDS011;2603;48.918;8.980;2023-08-30T04:03:51;6.80;;;3.10;;
5167;SDS011;2603;48.918;8.980;2023-08-30T04:06:18;7.87;;;4.30;;
5167;SDS011;2603;48.918;8.980;2023-08-30T04:08:47;4.90;;;2.90;;
5167;SDS011;2603;48.918;8.980;2023-08-30T04:11:14;6.77;;;3.73;;
5167;SDS011;2603;48.918;8.980;2023-08-30T04:13:40;4.00;;;3.07;;
5167;SDS011;2603;48.918;8.980;2023-08-30T04:16:07;3.87;;;2.77;;
5167;SDS011;2603;48.918;8.980;2023-08-30T04:18:34;4.80;;;3.43;;
5167;SDS011;2603;48.918;8.980;2023-08-30T04:21:02;4.17;;;3.20;;
5167;SDS011;2603;48.918;8.980;2023-08-30T04:23:31;5.83;;;3.50;;
5167;SDS011;2603;48.918;8.980;2023-08-30T04:25:57;6.93;;;3.77;;
5167;SDS011;2603;48.918;8.980;2023-08-30T04:28:24;3.30;;;2.57;;
5167;SDS011;2603;48.918;8.980;2023-08-30T04:30:52;4.47;;;3.60;;
5167;SDS011;2603;48.918;8.980;2023-08-30T04:33:19;6.83;;;2.73;;
5167;SDS011;2603;48.918;8.980;2023-08-30T04:35:49;3.77;;;2.80;;
5167;SDS011;2603;48.918;8.980;2023-08-30T04:38:18;4.93;;;3.27;;
5167;SDS011;2603;48.918;8.980;2023-08-30T04:40:46;5.20;;;3.60;;
5167;SDS011;2603;48.918;8.980;2023-08-30T04:43:16;5.60;;;3.87;;
5167;SDS011;2603;48.918;8.980;2023-08-30T04:45:42;4.80;;;3.50;;
5167;SDS011;2603;48.918;8.980;2023-08-30T04:48:09;7.70;;;3.40;;
5167;SDS011;2603;48.918;8.980;2023-08-30T04:50:36;5.50;;;3.57;;
5167;SDS011;2603;48.918;8.980;2023-08-30T04:53:03;5.50;;;3.00;;
5167;SDS011;2603;48.918;8.980;2023-08-30T04:55:32;5.90;;;3.47;;
5167;SDS011;2603;48.918;8.980;2023-08-30T04:57:58;4.43;;;2.83;;
5167;SDS011;2603;48.918;8.980;2023-08-30T05:00:29;4.40;;;3.23;;
5167;SDS011;2603;48.918;8.980;2023-08-30T05:02:56;8.03;;;3.83;;
5167;SDS011;2603;48.918;8.980;2023-08-30T05:05:23;4.33;;;3.70;;
5167;SDS011;2603;48.918;8.980;2023-08-30T05:07:49;12.83;;;4.40;;
5167;SDS011;2603;48.918;8.980;2023-08-30T05:10:16;4.50;;;3.37;;
5167;SDS011;2603;48.918;8.980;2023-08-30T05:12:44;4.93;;;3.10;;
5167;SDS011;2603;48.918;8.980;2023-08-30T05:15:14;4.23;;;3.20;;
5167;SDS011;2603;48.918;8.980;2023-08-30T05:17:41;6.63;;;3.87;;
5167;SDS011;2603;48.918;8.980;2023-08-30T05:20:08;5.60;;;4.63;;
5167;SDS011;2603;48.918;8.980;2023-08-30T05:22:35;6.97;;;4.20;;
5167;SDS011;2603;48.918;8.980;2023-08-30T05:25:02;9.07;;;4.93;;
5167;SDS011;2603;48.918;8.980;2023-08-30T05:27:30;8.57;;;5.37;;
5167;SDS011;2603;48.918;8.980;2023-08-30T05:29:58;7.47;;;3.80;;
5167;SDS011;2603;48.918;8.980;2023-08-30T05:32:25;7.43;;;4.80;;
5167;SDS011;2603;48.918;8.980;2023-08-30T05:35:06;7.40;;;4.70;;
5167;SDS011;2603;48.918;8.980;2023-08-30T05:37:54;5.77;;;4.57;;
5167;SDS011;2603;48.918;8.980;2023-08-30T05:40:49;5.83;;;4.20;;
5167;SDS011;2603;48.918;8.980;2023-08-30T05:43:16;5.93;;;4.33;;
5167;SDS011;2603;48.918;8.980;2023-08-30T05:45:47;6.50;;;4.93;;
5167;SDS011;2603;48.918;8.980;2023-08-30T05:48:13;5.87;;;4.87;;
5167;SDS011;2603;48.918;8.980;2023-08-30T05:50:40;7.93;;;4.50;;
5167;SDS011;2603;48.918;8.980;2023-08-30T05:53:07;5.90;;;4.70;;
5167;SDS011;2603;48.918;8.980;2023-08-30T05:55:33;6.10;;;4.70;;
5167;SDS011;2603;48.918;8.980;2023-08-30T05:58:00;10.50;;;4.67;;
5167;SDS011;2603;48.918;8.980;2023-08-30T06:00:26;10.50;;;5.13;;
5167;SDS011;2603;48.918;8.980;2023-08-30T06:02:54;9.10;;;4.00;;
5167;SDS011;2603;48.918;8.980;2023-08-30T06:05:21;6.87;;;4.17;;
5167;SDS011;2603;48.918;8.980;2023-08-30T06:07:47;7.20;;;4.37;;
5167;SDS011;2603;48.918;8.980;2023-08-30T06:10:14;7.17;;;4.30;;
5167;SDS011;2603;48.918;8.980;2023-08-30T06:12:40;7.43;;;5.60;;
5167;SDS011;2603;48.918;8.980;2023-08-30T06:15:07;8.53;;;4.77;;
5167;SDS011;2603;48.918;8.980;2023-08-30T06:17:34;10.80;;;5.43;;
5167;SDS011;2603;48.918;8.980;2023-08-30T06:20:02;5.97;;;4.90;;
5167;SDS011;2603;48.918;8.980;2023-08-30T06:22:29;6.10;;;4.97;;
5167;SDS011;2603;48.918;8.980;2023-08-30T06:24:56;11.70;;;7.30;;
5167;SDS011;2603;48.918;8.980;2023-08-30T06:27:23;13.30;;;8.37;;
5167;SDS011;2603;48.918;8.980;2023-08-30T06:29:49;11.90;;;9.20;;
5167;SDS011;2603;48.918;8.980;2023-08-30T06:32:16;12.80;;;7.47;;
5167;SDS011;2603;48.918;8.980;2023-08-30T06:34:43;9.50;;;6.73;;
5167;SDS011;2603;48.918;8.980;2023-08-30T06:37:11;13.43;;;5.77;;
5167;SDS011;2603;48.918;8.980;2023-08-30T06:39:37;14.37;;;7.57;;
5167;SDS011;2603;48.918;8.980;2023-08-30T06:42:04;11.50;;;7.63;;
5167;SDS011;2603;48.918;8.980;2023-08-30T06:44:30;10.27;;;7.17;;
5167;SDS011;2603;48.918;8.980;2023-08-30T06:46:57;9.33;;;6.70;;
5167;SDS011;2603;48.918;8.980;2023-08-30T06:49:24;15.03;;;7.50;;
5167;SDS011;2603;48.918;8.980;2023-08-30T06:51:50;15.20;;;8.30;;
5167;SDS011;2603;48.918;8.980;2023-08-30T06:54:18;12.53;;;8.10;;
5167;SDS011;2603;48.918;8.980;2023-08-30T06:56:47;12.20;;;7.23;;
5167;SDS011;2603;48.918;8.980;2023-08-30T06:59:23;9.63;;;7.00;;
5167;SDS011;2603;48.918;8.980;2023-08-30T07:01:49;12.80;;;8.33;;
5167;SDS011;2603;48.918;8.980;2023-08-30T07:04:16;11.63;;;8.50;;
5167;SDS011;2603;48.918;8.980;2023-08-30T07:06:42;11.70;;;7.83;;
5167;SDS011;2603;48.918;8.980;2023-08-30T07:09:09;10.27;;;6.10;;
5167;SDS011;2603;48.918;8.980;2023-08-30T07:11:38;15.00;;;6.37;;
5167;SDS011;2603;48.918;8.980;2023-08-30T07:14:04;9.20;;;6.07;;
5167;SDS011;2603;48.918;8.980;2023-08-30T07:16:31;8.83;;;6.20;;
5167;SDS011;2603;48.918;8.980;2023-08-30T07:18:58;8.73;;;6.60;;
5167;SDS011;2603;48.918;8.980;2023-08-30T07:21:25;14.23;;;7.10;;
5167;SDS011;2603;48.918;8.980;2023-08-30T07:23:51;10.90;;;6.87;;
5167;SDS011;2603;48.918;8.980;2023-08-30T07:26:18;9.20;;;5.70;;
5167;SDS011;2603;48.918;8.980;2023-08-30T07:28:46;9.97;;;6.80;;
5167;SDS011;2603;48.918;8.980;2023-08-30T07:31:12;12.63;;;6.23;;
5167;SDS011;2603;48.918;8.980;2023-08-30T07:33:41;6.80;;;6.03;;
5167;SDS011;2603;48.918;8.980;2023-08-30T07:36:07;9.40;;;6.43;;
5167;SDS011;2603;48.918;8.980;2023-08-30T07:38:34;10.33;;;5.93;;
5167;SDS011;2603;48.918;8.980;2023-08-30T07:41:01;8.13;;;5.97;;
5167;SDS011;2603;48.918;8.980;2023-08-30T07:43:27;4.93;;;3.50;;
5167;SDS011;2603;48.918;8.980;2023-08-30T07:45:55;6.20;;;3.63;;
5167;SDS011;2603;48.918;8.980;2023-08-30T07:48:22;17.17;;;4.90;;
5167;SDS011;2603;48.918;8.980;2023-08-30T07:50:49;4.47;;;3.27;;
5167;SDS011;2603;48.918;8.980;2023-08-30T07:53:15;10.20;;;6.80;;
5167;SDS011;2603;48.918;8.980;2023-08-30T07:55:42;11.37;;;8.40;;
5167;SDS011;2603;48.918;8.980;2023-08-30T07:58:08;10.33;;;7.80;;
5167;SDS011;2603;48.918;8.980;2023-08-30T08:00:35;12.93;;;8.20;;
5167;SDS011;2603;48.918;8.980;2023-08-30T08:03:03;8.00;;;6.60;;
5167;SDS011;2603;48.918;8.980;2023-08-30T08:05:30;10.00;;;5.97;;
5167;SDS011;2603;48.918;8.980;2023-08-30T08:07:59;6.63;;;5.27;;
5167;SDS011;2603;48.918;8.980;2023-08-30T08:10:26;6.67;;;4.90;;
5167;SDS011;2603;48.918;8.980;2023-08-30T08:12:52;4.40;;;3.37;;
5167;SDS011;2603;48.918;8.980;2023-08-30T08:15:19;6.73;;;3.73;;
5167;SDS011;2603;48.918;8.980;2023-08-30T08:17:46;5.43;;;3.23;;
5167;SDS011;2603;48.918;8.980;2023-08-30T08:20:14;4.23;;;2.50;;
5167;SDS011;2603;48.918;8.980;2023-08-30T08:22:40;6.07;;;2.70;;
5167;SDS011;2603;48.918;8.980;2023-08-30T08:25:07;10.40;;;2.77;;
5167;SDS011;2603;48.918;8.980;2023-08-30T08:27:35;4.23;;;3.10;;
5167;SDS011;2603;48.918;8.980;2023-08-30T08:30:01;5.27;;;2.30;;
5167;SDS011;2603;48.918;8.980;2023-08-30T08:32:29;3.20;;;2.33;;
5167;SDS011;2603;48.918;8.980;2023-08-30T08:34:56;4.80;;;2.27;;
5167;SDS011;2603;48.918;8.980;2023-08-30T08:37:26;5.67;;;2.00;;
5167;SDS011;2603;48.918;8.980;2023-08-30T08:39:58;3.90;;;2.10;;
5167;SDS011;2603;48.918;8.980;2023-08-30T08:42:24;9.40;;;2.20;;
5167;SDS011;2603;48.918;8.980;2023-08-30T08:44:51;5.40;;;2.10;;
5167;SDS011;2603;48.918;8.980;2023-08-30T08:47:19;3.13;;;1.70;;
5167;SDS011;2603;48.918;8.980;2023-08-30T08:49:46;3.30;;;1.80;;
5167;SDS011;2603;48.918;8.980;2023-08-30T08:52:13;3.43;;;2.00;;
5167;SDS011;2603;48.918;8.980;2023-08-30T08:54:41;3.03;;;1.70;;
5167;SDS011;2603;48.918;8.980;2023-08-30T08:57:09;4.17;;;2.00;;
5167;SDS011;2603;48.918;8.980;2023-08-30T08:59:35;3.73;;;1.57;;
5167;SDS011;2603;48.918;8.980;2023-08-30T09:02:02;3.03;;;1.43;;
5167;SDS011;2603;48.918;8.980;2023-08-30T09:04:30;2.90;;;2.03;;
5167;SDS011;2603;48.918;8.980;2023-08-30T09:06:57;3.53;;;2.10;;
5167;SDS011;2603;48.918;8.980;2023-08-30T09:09:25;2.67;;;1.70;;
5167;SDS011;2603;48.918;8.980;2023-08-30T09:11:52;2.40;;;1.43;;
5167;SDS011;2603;48.918;8.980;2023-08-30T09:14:19;5.30;;;1.93;;
5167;SDS011;2603;48.918;8.980;2023-08-30T09:16:53;5.60;;;2.67;;
5167;SDS011;2603;48.918;8.980;2023-08-30T09:19:20;3.70;;;2.03;;
5167;SDS011;2603;48.918;8.980;2023-08-30T09:21:50;4.43;;;2.07;;
5167;SDS011;2603;48.918;8.980;2023-08-30T09:24:17;2.33;;;1.40;;
5167;SDS011;2603;48.918;8.980;2023-08-30T09:26:46;3.27;;;1.60;;
5167;SDS011;2603;48.918;8.980;2023-08-30T09:29:16;5.10;;;1.80;;
5167;SDS011;2603;48.918;8.980;2023-08-30T09:31:43;3.20;;;1.83;;
5167;SDS011;2603;48.918;8.980;2023-08-30T09:34:09;4.73;;;2.10;;
5167;SDS011;2603;48.918;8.980;2023-08-30T09:36:37;4.83;;;2.37;;
5167;SDS011;2603;48.918;8.980;2023-08-30T09:39:05;2.10;;;1.50;;
5167;SDS011;2603;48.918;8.980;2023-08-30T09:41:32;3.30;;;1.60;;
5167;SDS011;2603;48.918;8.980;2023-08-30T09:43:59;4.37;;;1.23;;
5167;SDS011;2603;48.918;8.980;2023-08-30T09:46:27;4.40;;;1.57;;
5167;SDS011;2603;48.918;8.980;2023-08-30T09:48:53;4.60;;;2.33;;
5167;SDS011;2603;48.918;8.980;2023-08-30T09:51:20;2.83;;;1.70;;
5167;SDS011;2603;48.918;8.980;2023-08-30T09:53:46;5.30;;;2.10;;
5167;SDS011;2603;48.918;8.980;2023-08-30T09:56:16;4.10;;;2.23;;
5167;SDS011;2603;48.918;8.980;2023-08-30T09:58:44;5.70;;;1.63;;
5167;SDS011;2603;48.918;8.980;2023-08-30T10:01:12;3.30;;;1.63;;
5167;SDS011;2603;48.918;8.980;2023-08-30T10:03:40;3.17;;;1.80;;
5167;SDS011;2603;48.918;8.980;2023-08-30T10:06:07;3.13;;;2.00;;
5167;SDS011;2603;48.918;8.980;2023-08-30T10:08:34;2.17;;;1.83;;
5167;SDS011;2603;48.918;8.980;2023-08-30T10:11:02;3.27;;;1.83;;
5167;SDS011;2603;48.918;8.980;2023-08-30T10:13:29;3.70;;;2.20;;
5167;SDS011;2603;48.918;8.980;2023-08-30T10:15:57;3.63;;;2.40;;
5167;SDS011;2603;48.918;8.980;2023-08-30T10:18:28;2.77;;;2.20;;
5167;SDS011;2603;48.918;8.980;2023-08-30T10:20:57;3.57;;;1.90;;
5167;SDS011;2603;48.918;8.980;2023-08-30T10:23:25;3.93;;;2.30;;
5167;SDS011;2603;48.918;8.980;2023-08-30T10:25:52;3.60;;;2.40;;
5167;SDS011;2603;48.918;8.980;2023-08-30T10:28:19;3.33;;;2.40;;
5167;SDS011;2603;48.918;8.980;2023-08-30T10:30:48;3.70;;;2.47;;
5167;SDS011;2603;48.918;8.980;2023-08-30T10:33:15;4.10;;;2.30;;
5167;SDS011;2603;48.918;8.980;2023-08-30T10:35:47;3.87;;;2.30;;
5167;SDS011;2603;48.918;8.980;2023-08-30T10:38:25;4.63;;;2.50;;
5167;SDS011;2603;48.918;8.980;2023-08-30T10:40:52;3.40;;;2.40;;
5167;SDS011;2603;48.918;8.980;2023-08-30T10:43:27;4.07;;;2.90;;
5167;SDS011;2603;48.918;8.980;2023-08-30T10:46:01;4.20;;;2.70;;
5167;SDS011;2603;48.918;8.980;2023-08-30T10:48:38;5.37;;;3.33;;
5167;SDS011;2603;48.918;8.980;2023-08-30T10:51:07;4.00;;;2.83;;
5167;SDS011;2603;48.918;8.980;2023-08-30T10:53:56;3.97;;;2.50;;
5167;SDS011;2603;48.918;8.980;2023-08-30T10:56:27;4.70;;;2.80;;
5167;SDS011;2603;48.918;8.980;2023-08-30T10:58:54;4.30;;;3.07;;
5167;SDS011;2603;48.918;8.980;2023-08-30T11:01:21;3.40;;;2.70;;
5167;SDS011;2603;48.918;8.980;2023-08-30T11:03:47;5.30;;;3.30;;
5167;SDS011;2603;48.918;8.980;2023-08-30T11:06:15;4.10;;;2.93;;
5167;SDS011;2603;48.918;8.980;2023-08-30T11:08:42;6.20;;;3.40;;
5167;SDS011;2603;48.918;8.980;2023-08-30T11:11:10;5.13;;;3.23;;
5167;SDS011;2603;48.918;8.980;2023-08-30T11:13:39;5.50;;;2.80;;
5167;SDS011;2603;48.918;8.980;2023-08-30T11:16:06;7.03;;;3.00;;
5167;SDS011;2603;48.918;8.980;2023-08-30T11:18:36;6.00;;;3.27;;
5167;SDS011;2603;48.918;8.980;2023-08-30T11:21:04;5.50;;;3.00;;
5167;SDS011;2603;48.918;8.980;2023-08-30T11:23:31;5.80;;;3.83;;
5167;SDS011;2603;48.918;8.980;2023-08-30T11:26:00;7.13;;;3.70;;
5167;SDS011;2603;48.918;8.980;2023-08-30T11:28:30;7.43;;;3.70;;
5167;SDS011;2603;48.918;8.980;2023-08-30T11:30:56;4.13;;;2.80;;
5167;SDS011;2603;48.918;8.980;2023-08-30T11:33:23;7.97;;;2.90;;
5167;SDS011;2603;48.918;8.980;2023-08-30T11:35:50;8.00;;;2.97;;
5167;SDS011;2603;48.918;8.980;2023-08-30T11:38:17;3.93;;;2.67;;
5167;SDS011;2603;48.918;8.980;2023-08-30T11:40:45;3.80;;;2.73;;
5167;SDS011;2603;48.918;8.980;2023-08-30T11:43:12;4.83;;;2.93;;
5167;SDS011;2603;48.918;8.980;2023-08-30T11:45:40;7.00;;;2.77;;
5167;SDS011;2603;48.918;8.980;2023-08-30T11:48:06;5.87;;;3.17;;
5167;SDS011;2603;48.918;8.980;2023-08-30T11:50:33;10.83;;;3.10;;
5167;SDS011;2603;48.918;8.980;2023-08-30T11:53:00;5.80;;;2.87;;
5167;SDS011;2603;48.918;8.980;2023-08-30T11:55:27;3.90;;;3.10;;
5167;SDS011;2603;48.918;8.980;2023-08-30T11:57:54;5.87;;;2.50;;
5167;SDS011;2603;48.918;8.980;2023-08-30T12:00:21;6.17;;;2.70;;
5167;SDS011;2603;48.918;8.980;2023-08-30T12:02:49;4.20;;;2.80;;
5167;SDS011;2603;48.918;8.980;2023-08-30T12:05:16;3.30;;;2.33;;
5167;SDS011;2603;48.918;8.980;2023-08-30T12:07:42;3.90;;;2.50;;
5167;SDS011;2603;48.918;8.980;2023-08-30T12:10:10;2.70;;;2.20;;
5167;SDS011;2603;48.918;8.980;2023-08-30T12:12:37;3.60;;;2.50;;
5167;SDS011;2603;48.918;8.980;2023-08-30T12:15:07;3.43;;;2.13;;
5167;SDS011;2603;48.918;8.980;2023-08-30T12:17:34;4.97;;;2.10;;
5167;SDS011;2603;48.918;8.980;2023-08-30T12:20:02;3.90;;;2.03;;
5167;SDS011;2603;48.918;8.980;2023-08-30T12:22:36;2.80;;;2.07;;
5167;SDS011;2603;48.918;8.980;2023-08-30T12:25:04;2.50;;;1.50;;
5167;SDS011;2603;48.918;8.980;2023-08-30T12:27:41;4.10;;;1.60;;
5167;SDS011;2603;48.918;8.980;2023-08-30T12:30:08;5.40;;;3.00;;
5167;SDS011;2603;48.918;8.980;2023-08-30T12:32:35;5.80;;;3.27;;
5167;SDS011;2603;48.918;8.980;2023-08-30T12:35:03;6.57;;;3.20;;
5167;SDS011;2603;48.918;8.980;2023-08-30T12:37:30;4.57;;;3.20;;
5167;SDS011;2603;48.918;8.980;2023-08-30T12:39:56;5.93;;;2.73;;
5167;SDS011;2603;48.918;8.980;2023-08-30T12:42:23;3.70;;;2.83;;
5167;SDS011;2603;48.918;8.980;2023-08-30T12:44:50;3.67;;;2.63;;
5167;SDS011;2603;48.918;8.980;2023-08-30T12:47:16;3.60;;;2.03;;
5167;SDS011;2603;48.918;8.980;2023-08-30T12:49:42;6.07;;;2.63;;
5167;SDS011;2603;48.918;8.980;2023-08-30T12:52:10;4.10;;;2.30;;
5167;SDS011;2603;48.918;8.980;2023-08-30T12:54:41;7.33;;;2.20;;
5167;SDS011;2603;48.918;8.980;2023-08-30T12:57:08;7.03;;;2.50;;
5167;SDS011;2603;48.918;8.980;2023-08-30T12:59:34;4.50;;;2.60;;
5167;SDS011;2603;48.918;8.980;2023-08-30T13:02:01;7.80;;;2.90;;
5167;SDS011;2603;48.918;8.980;2023-08-30T13:04:28;3.87;;;2.53;;
5167;SDS011;2603;48.918;8.980;2023-08-30T13:06:55;4.50;;;2.30;;
5167;SDS011;2603;48.918;8.980;2023-08-30T13:09:22;6.60;;;2.80;;
5167;SDS011;2603;48.918;8.980;2023-08-30T13:11:49;7.63;;;2.37;;
5167;SDS011;2603;48.918;8.980;2023-08-30T13:14:16;3.27;;;1.80;;
5167;SDS011;2603;48.918;8.980;2023-08-30T13:16:42;5.80;;;2.00;;
5167;SDS011;2603;48.918;8.980;2023-08-30T13:19:09;4.27;;;2.13;;
5167;SDS011;2603;48.918;8.980;2023-08-30T13:21:36;3.60;;;1.70;;
5167;SDS011;2603;48.918;8.980;2023-08-30T13:24:03;5.90;;;2.20;;
5167;SDS011;2603;48.918;8.980;2023-08-30T13:26:32;4.33;;;1.80;;
5167;SDS011;2603;48.918;8.980;2023-08-30T13:28:59;3.77;;;1.70;;
5167;SDS011;2603;48.918;8.980;2023-08-30T13:31:27;10.20;;;1.80;;
5167;SDS011;2603;48.918;8.980;2023-08-30T13:33:54;5.20;;;2.20;;
5167;SDS011;2603;48.918;8.980;2023-08-30T13:36:20;2.60;;;1.70;;
5167;SDS011;2603;48.918;8.980;2023-08-30T13:38:47;4.33;;;1.90;;
5167;SDS011;2603;48.918;8.980;2023-08-30T13:41:13;4.80;;;1.40;;
5167;SDS011;2603;48.918;8.980;2023-08-30T13:43:41;5.30;;;1.27;;
5167;SDS011;2603;48.918;8.980;2023-08-30T13:46:07;6.90;;;1.63;;
5167;SDS011;2603;48.918;8.980;2023-08-30T13:48:34;5.70;;;1.67;;
5167;SDS011;2603;48.918;8.980;2023-08-30T13:51:01;3.17;;;1.43;;
5167;SDS011;2603;48.918;8.980;2023-08-30T13:53:27;4.70;;;1.97;;
5167;SDS011;2603;48.918;8.980;2023-08-30T13:55:54;3.03;;;1.90;;
5167;SDS011;2603;48.918;8.980;2023-08-30T13:58:20;2.00;;;1.30;;
5167;SDS011;2603;48.918;8.980;2023-08-30T14:00:48;2.23;;;1.20;;
5167;SDS011;2603;48.918;8.980;2023-08-30T14:03:15;3.00;;;1.20;;
5167;SDS011;2603;48.918;8.980;2023-08-30T14:05:41;2.20;;;1.23;;
5167;SDS011;2603;48.918;8.980;2023-08-30T14:08:08;2.10;;;1.20;;
5167;SDS011;2603;48.918;8.980;2023-08-30T14:10:34;4.90;;;1.60;;
5167;SDS011;2603;48.918;8.980;2023-08-30T14:13:01;2.70;;;1.50;;
5167;SDS011;2603;48.918;8.980;2023-08-30T14:15:27;2.33;;;1.20;;
5167;SDS011;2603;48.918;8.980;2023-08-30T14:17:55;2.37;;;1.30;;
5167;SDS011;2603;48.918;8.980;2023-08-30T14:20:21;2.70;;;1.40;;
5167;SDS011;2603;48.918;8.980;2023-08-30T14:22:48;2.17;;;1.47;;
5167;SDS011;2603;48.918;8.980;2023-08-30T14:25:15;3.57;;;1.80;;
5167;SDS011;2603;48.918;8.980;2023-08-30T14:27:41;2.60;;;1.20;;
5167;SDS011;2603;48.918;8.980;2023-08-30T14:30:08;8.33;;;1.07;;
5167;SDS011;2603;48.918;8.980;2023-08-30T14:32:35;6.70;;;1.53;;
5167;SDS011;2603;48.918;8.980;2023-08-30T14:35:04;2.97;;;1.37;;
5167;SDS011;2603;48.918;8.980;2023-08-30T14:37:30;2.00;;;1.43;;
5167;SDS011;2603;48.918;8.980;2023-08-30T14:39:59;3.63;;;1.30;;
5167;SDS011;2603;48.918;8.980;2023-08-30T14:42:26;2.03;;;1.20;;
5167;SDS011;2603;48.918;8.980;2023-08-30T14:44:52;3.40;;;1.17;;
5167;SDS011;2603;48.918;8.980;2023-08-30T14:47:19;2.03;;;1.30;;
5167;SDS011;2603;48.918;8.980;2023-08-30T14:49:46;3.47;;;1.33;;
5167;SDS011;2603;48.918;8.980;2023-08-30T14:52:14;2.70;;;1.43;;
5167;SDS011;2603;48.918;8.980;2023-08-30T14:54:41;2.30;;;1.20;;
5167;SDS011;2603;48.918;8.980;2023-08-30T14:57:08;3.63;;;1.40;;
5167;SDS011;2603;48.918;8.980;2023-08-30T14:59:35;2.60;;;1.50;;
5167;SDS011;2603;48.918;8.980;2023-08-30T15:02:01;3.03;;;1.50;;
5167;SDS011;2603;48.918;8.980;2023-08-30T15:04:28;2.20;;;1.53;;
5167;SDS011;2603;48.918;8.980;2023-08-30T15:06:55;2.50;;;1.67;;
5167;SDS011;2603;48.918;8.980;2023-08-30T15:09:22;2.50;;;1.70;;
5167;SDS011;2603;48.918;8.980;2023-08-30T15:11:49;3.73;;;2.20;;
5167;SDS011;2603;48.918;8.980;2023-08-30T15:14:15;3.00;;;2.00;;
5167;SDS011;2603;48.918;8.980;2023-08-30T15:16:42;3.50;;;1.40;;